Airfield :
LOGIN :

Register | Disclaimer

   EN    FR    IT 

 










Legend :    VFR   Marginal VFR   IFR   Intensive IFR   Very Intensive IFR
Visi :
Ceiling :
>= 8 km
>= 3000ft
5 to 8 km
1000 to 3000 ft
1500m to 5 km
500 to 1000 ft
800 to 1500m
200 to 500 ft
< 800m
< 200 ft
Symbols :   Thunderstorms  Fog  Heavy snow  Heavy precipitations  Wind > 20 kt
SIGMETs :     Misc.  Thunderstorms  Icing  Turbulence  Mountain Waves  Volcanic Ashes






- Airport Elevation : 42 ft
- IATA code : KGD


UMKK - Khrabrava - Kaliningrad

CURRENT METAR :
  • 212100Z 26008MPS 9999 BKN009 06/05 Q1023 R24/290095 NOSIG RMK QFE766/1021

EXPIRED METARs :
  • 212030Z 26008MPS 9000 -RA BKN007 OVC016 06/05 Q1023 R24/290095 NOSIG RMK QFE766/1022
  • 212000Z 27007MPS 9999 -RA BKN007 OVC017 06/05 Q1023 R24/290095 NOSIG RMK QFE766/1022
  • 211930Z 27009MPS 8000 -RA BKN006 OVC016 06/05 Q1024 R24/290095 NOSIG RMK QBB180 OBST OBSC QFE767/1022
  • 211900Z 27009MPS 6000 -RA BKN006 OVC015 06/05 Q1025 R24/290095 NOSIG RMK QBB180 OBST OBSC QFE767/1023

TAF TAF UMKK
Valid from the 21 at 21:00 until the 22 at 21:00 UTC


211957Z 2121/2221 27010G16MPS 4000 -RA BR OVC011
BECMG 2122/2123 9999 NSW SCT011 BKN020
TEMPO 2123/2206 29012G20MPS -SHRA BKN012CB
BECMG 2208/2210 31010G16MPS SCT020
TEMPO 2210/2219 34012G18MPS



MET'MAP, your aeronautical weather chart ! - Copyright ORBIFLY December 2007 - Disclaimer

ORBIFLY MET'MAP TEAM :

Programming & Development : Alexandra Zaïnal
Concept & original design : Baudouin d'Aumeries
Assistance for programming : Marc-Olivier Méhu
Technical & hardware support : Manuel Goepfert

Contact : metmap@orbifly.com




SOURCES & CREDITS :

   NOAA